createdAt,value
2023-03-10T00:00:25.142Z,9.90
2023-03-10T00:03:27.406Z,9.73
2023-03-10T00:06:33.516Z,14.93
2023-03-10T00:09:36.567Z,8.93
2023-03-10T00:12:38.988Z,12.02
2023-03-10T00:15:41.312Z,11.40
2023-03-10T00:18:43.813Z,10.40
2023-03-10T00:21:46.234Z,9.97
2023-03-10T00:24:48.653Z,8.48
2023-03-10T00:27:52.627Z,11.48
2023-03-10T00:31:03.016Z,10.95
2023-03-10T00:34:05.557Z,12.32
2023-03-10T00:37:07.866Z,8.83
2023-03-10T00:40:12.642Z,10.45
2023-03-10T00:43:14.992Z,7.85
2023-03-10T00:46:18.131Z,11.90
2023-03-10T00:49:20.864Z,10.50
2023-03-10T00:52:23.154Z,12.07
2023-03-10T00:55:25.459Z,10.40
2023-03-10T00:58:27.901Z,9.95
2023-03-10T01:01:34.400Z,14.48
2023-03-10T01:04:36.854Z,9.18
2023-03-10T01:07:39.324Z,8.80
2023-03-10T01:10:41.719Z,14.85
2023-03-10T01:13:44.789Z,13.25
2023-03-10T01:16:47.213Z,13.13
2023-03-10T01:19:49.951Z,9.13
2023-03-10T01:22:52.263Z,11.63
2023-03-10T01:25:55.118Z,12.18
2023-03-10T01:28:57.707Z,13.23
2023-03-10T01:32:00.068Z,9.88
2023-03-10T01:35:02.782Z,9.85
2023-03-10T01:38:06.445Z,13.00
2023-03-10T01:41:10.420Z,8.95
2023-03-10T01:44:20.409Z,10.88
2023-03-10T01:47:22.888Z,9.52
2023-03-10T01:50:25.847Z,9.43
2023-03-10T01:53:29.032Z,8.97
2023-03-10T01:56:31.671Z,7.78
2023-03-10T01:59:34.339Z,8.88
2023-03-10T02:02:40.212Z,9.82
2023-03-10T02:05:46.449Z,10.55
2023-03-10T02:08:54.508Z,6.73
2023-03-10T02:11:58.197Z,10.73
2023-03-10T02:15:00.521Z,11.30
2023-03-10T02:18:04.006Z,13.70
2023-03-10T02:21:13.174Z,11.90
2023-03-10T02:24:20.855Z,14.20
2023-03-10T02:27:24.954Z,11.55
2023-03-10T02:30:38.848Z,10.80
2023-03-10T02:33:42.263Z,10.40
2023-03-10T02:36:44.942Z,12.50
2023-03-10T02:39:47.371Z,13.53
2023-03-10T02:42:49.956Z,12.57
2023-03-10T02:45:54.202Z,12.25
2023-03-10T02:49:01.626Z,8.32
2023-03-10T02:52:31.972Z,11.80
2023-03-10T02:55:34.464Z,11.57
2023-03-10T02:58:37.213Z,7.43
2023-03-10T03:01:42.630Z,10.20
2023-03-10T03:04:45.012Z,9.27
2023-03-10T03:07:47.550Z,14.15
2023-03-10T03:10:50.235Z,10.07
2023-03-10T03:13:52.682Z,12.88
2023-03-10T03:16:55.433Z,11.77
2023-03-10T03:19:58.076Z,15.02
2023-03-10T03:23:00.511Z,15.65
2023-03-10T03:26:03.197Z,12.90
2023-03-10T03:29:06.149Z,12.30
2023-03-10T03:32:11.152Z,18.38
2023-03-10T03:35:24.024Z,8.65
2023-03-10T03:38:26.894Z,9.30
2023-03-10T03:41:29.222Z,9.50
2023-03-10T03:44:31.738Z,8.85
2023-03-10T03:47:34.989Z,8.65
2023-03-10T03:50:38.506Z,8.73
2023-03-10T03:53:49.780Z,7.20
2023-03-10T03:56:52.220Z,7.93
2023-03-10T03:59:55.053Z,8.63
2023-03-10T04:02:57.527Z,7.25
2023-03-10T04:06:00.016Z,10.38
2023-03-10T04:09:02.589Z,6.68
2023-03-10T04:12:07.836Z,13.87
2023-03-10T04:15:11.372Z,14.07
2023-03-10T04:18:13.761Z,13.00
2023-03-10T04:21:17.623Z,14.52
2023-03-10T04:24:22.119Z,11.00
2023-03-10T04:27:24.540Z,8.67
2023-03-10T04:30:29.523Z,6.75
2023-03-10T04:33:33.688Z,7.47
2023-03-10T04:36:50.389Z,6.20
2023-03-10T04:39:54.841Z,9.43
2023-03-10T04:42:57.612Z,7.47
2023-03-10T04:46:00.248Z,7.03
2023-03-10T04:49:03.358Z,6.38
2023-03-10T04:52:05.987Z,14.15
2023-03-10T04:55:11.886Z,6.85
2023-03-10T04:58:14.453Z,6.63
2023-03-10T05:01:17.165Z,8.45
2023-03-10T05:04:24.263Z,7.68
2023-03-10T05:07:29.000Z,7.72
2023-03-10T05:10:33.107Z,7.50
2023-03-10T05:13:35.752Z,8.20
2023-03-10T05:16:39.141Z,9.48
2023-03-10T05:19:42.962Z,14.73
2023-03-10T05:22:45.724Z,7.45
2023-03-10T05:25:48.378Z,19.80
2023-03-10T05:28:51.745Z,8.37
2023-03-10T05:32:01.141Z,10.27
2023-03-10T05:35:10.237Z,9.52
2023-03-10T05:38:14.711Z,11.43
2023-03-10T05:41:17.223Z,9.18
2023-03-10T05:44:22.754Z,11.57
2023-03-10T05:47:25.324Z,12.77
2023-03-10T05:50:27.963Z,13.07
2023-03-10T05:53:33.015Z,12.38
2023-03-10T05:56:36.425Z,11.93
2023-03-10T05:59:39.741Z,11.10
2023-03-10T06:02:42.527Z,14.60
2023-03-10T06:05:44.918Z,14.15
2023-03-10T06:08:50.268Z,24.35
2023-03-10T06:11:52.791Z,20.80
2023-03-10T06:14:55.364Z,11.47
2023-03-10T06:17:57.733Z,10.50
2023-03-10T06:21:00.552Z,15.15
2023-03-10T06:24:04.132Z,12.85
2023-03-10T06:27:06.488Z,8.48
2023-03-10T06:30:11.981Z,12.13
2023-03-10T06:33:14.369Z,13.20
2023-03-10T06:36:18.015Z,12.70
2023-03-10T06:39:27.382Z,11.13
2023-03-10T06:42:32.597Z,12.98
2023-03-10T06:45:34.971Z,9.53
2023-03-10T06:48:38.619Z,9.40
2023-03-10T06:51:40.996Z,11.88
2023-03-10T06:54:43.316Z,7.03
2023-03-10T06:57:45.906Z,9.98
2023-03-10T07:00:48.219Z,13.23
2023-03-10T07:03:50.750Z,10.15
2023-03-10T07:06:53.071Z,17.60
2023-03-10T07:09:57.506Z,11.98
2023-03-10T07:13:00.322Z,10.65
2023-03-10T07:16:05.432Z,7.23
2023-03-10T07:19:07.723Z,10.43
2023-03-10T07:22:11.451Z,7.18
2023-03-10T07:25:13.780Z,9.52
2023-03-10T07:28:16.131Z,12.05
2023-03-10T07:31:18.573Z,8.30
2023-03-10T07:34:21.307Z,10.30
2023-03-10T07:37:23.562Z,11.52
2023-03-10T07:40:25.926Z,8.43
2023-03-10T07:43:28.259Z,12.18
2023-03-10T07:46:30.876Z,13.90
2023-03-10T07:49:33.629Z,11.63
2023-03-10T07:52:35.878Z,8.90
2023-03-10T07:55:38.790Z,11.35
2023-03-10T07:58:41.555Z,10.30
2023-03-10T08:01:43.973Z,11.63
2023-03-10T08:04:46.543Z,11.30
2023-03-10T08:07:49.110Z,12.45
2023-03-10T08:11:02.867Z,15.40
2023-03-10T08:14:05.701Z,9.73
2023-03-10T08:17:08.637Z,10.97
2023-03-10T08:20:11.619Z,8.65
2023-03-10T08:23:14.011Z,14.45
2023-03-10T08:26:17.861Z,8.38
2023-03-10T08:29:20.895Z,11.35
2023-03-10T08:32:24.289Z,10.97
2023-03-10T08:35:26.739Z,6.95
2023-03-10T08:38:29.051Z,11.30
2023-03-10T08:41:37.286Z,9.88
2023-03-10T08:44:40.545Z,8.40
2023-03-10T08:47:44.011Z,12.10
2023-03-10T08:50:46.283Z,12.32
2023-03-10T08:53:49.790Z,11.68
2023-03-10T08:56:52.061Z,13.35
2023-03-10T08:59:54.501Z,16.77
2023-03-10T09:02:57.296Z,7.27
2023-03-10T09:05:59.615Z,8.65
2023-03-10T09:09:02.699Z,7.07
2023-03-10T09:12:05.386Z,8.48
2023-03-10T09:15:09.292Z,7.72
2023-03-10T09:18:13.854Z,7.80
2023-03-10T09:21:18.699Z,9.52
2023-03-10T09:24:21.591Z,6.55
2023-03-10T09:27:24.885Z,4.55
2023-03-10T09:30:33.744Z,8.27
2023-03-10T09:33:37.014Z,6.03
2023-03-10T09:36:43.906Z,4.75
2023-03-10T09:39:46.758Z,8.18
2023-03-10T09:43:02.341Z,10.07
2023-03-10T09:46:16.111Z,10.77
2023-03-10T09:50:01.722Z,8.90
2023-03-10T09:53:25.823Z,5.82
2023-03-10T09:58:07.328Z,7.80
2023-03-10T10:01:59.116Z,8.82
2023-03-10T10:05:10.991Z,11.50
2023-03-10T10:08:20.323Z,6.33
2023-03-10T10:11:22.625Z,6.90
2023-03-10T10:14:32.431Z,4.18
2023-03-10T10:18:18.394Z,5.43
2023-03-10T10:21:40.344Z,4.45
2023-03-10T10:25:22.785Z,4.80
2023-03-10T10:29:42.573Z,2.92
2023-03-10T10:42:34.882Z,4.30
2023-03-10T10:45:39.886Z,5.07
2023-03-10T10:48:51.608Z,8.55
2023-03-10T10:52:01.157Z,11.52
2023-03-10T10:55:05.272Z,5.55
2023-03-10T10:58:34.282Z,4.30
2023-03-10T11:01:53.499Z,5.73
2023-03-10T11:05:17.105Z,8.02
2023-03-10T11:08:35.019Z,4.43
2023-03-10T11:11:58.774Z,7.32
2023-03-10T11:15:44.613Z,10.75
2023-03-10T11:19:50.376Z,2.80
2023-03-10T11:26:49.460Z,6.25
2023-03-10T11:30:33.299Z,4.40
2023-03-10T11:33:55.485Z,4.82
2023-03-10T11:37:30.120Z,9.40
2023-03-10T11:40:55.105Z,7.82
2023-03-10T11:44:26.314Z,4.40
2023-03-10T11:47:55.040Z,6.07
2023-03-10T11:51:02.597Z,6.20
2023-03-10T11:54:24.426Z,5.53
2023-03-10T11:57:41.097Z,4.90
2023-03-10T12:00:49.611Z,5.90
2023-03-10T12:03:59.448Z,5.28
2023-03-10T12:11:12.731Z,6.13
2023-03-10T12:14:20.170Z,4.07
2023-03-10T12:17:23.807Z,4.53
2023-03-10T12:20:58.553Z,5.22
2023-03-10T12:24:58.213Z,7.65
2023-03-10T12:28:30.803Z,3.50
2023-03-10T12:31:38.959Z,4.10
2023-03-10T12:34:43.232Z,4.95
2023-03-10T12:37:50.170Z,3.45
2023-03-10T12:40:52.761Z,3.85
2023-03-10T12:43:59.115Z,4.63
2023-03-10T12:47:23.627Z,2.40
2023-03-10T12:50:35.171Z,9.00
2023-03-10T12:54:21.951Z,4.10
2023-03-10T12:57:48.872Z,6.95
2023-03-10T13:01:01.663Z,5.53
2023-03-10T13:04:07.776Z,7.07
2023-03-10T13:07:16.026Z,4.22
2023-03-10T13:10:26.038Z,2.25
2023-03-10T13:13:44.074Z,2.95
2023-03-10T13:16:56.628Z,2.17
2023-03-10T13:20:08.577Z,4.28
2023-03-10T13:23:29.621Z,2.08
2023-03-10T13:26:31.887Z,2.47
2023-03-10T13:29:35.155Z,3.13
2023-03-10T13:32:37.504Z,3.83
2023-03-10T13:35:43.377Z,7.35
2023-03-10T13:38:46.787Z,7.28
2023-03-10T13:41:55.023Z,2.38
2023-03-10T13:44:57.387Z,2.90
2023-03-10T13:48:06.548Z,10.30
2023-03-10T13:51:32.295Z,2.25
2023-03-10T13:54:41.730Z,2.58
2023-03-10T13:57:46.053Z,3.20
2023-03-10T14:00:50.672Z,2.00
2023-03-10T14:03:54.572Z,1.27
2023-03-10T14:07:14.380Z,1.65
2023-03-10T14:10:20.245Z,4.93
2023-03-10T14:13:45.080Z,4.03
2023-03-10T14:16:51.976Z,1.30
2023-03-10T14:19:54.517Z,1.87
2023-03-10T14:22:57.107Z,3.30
2023-03-10T14:25:59.457Z,3.08
2023-03-10T14:29:03.858Z,5.45
2023-03-10T14:32:10.044Z,5.40
2023-03-10T14:35:13.405Z,11.80
2023-03-10T14:38:16.648Z,2.92
2023-03-10T14:41:21.113Z,2.83
2023-03-10T14:44:23.539Z,1.13
2023-03-10T14:47:28.382Z,1.80
2023-03-10T14:50:30.925Z,5.73
2023-03-10T14:53:34.081Z,1.48
2023-03-10T14:56:36.378Z,2.97
2023-03-10T14:59:39.571Z,4.57
2023-03-10T15:02:42.321Z,3.10
2023-03-10T15:05:49.121Z,2.80
2023-03-10T15:08:51.745Z,8.68
2023-03-10T15:11:55.217Z,2.80
2023-03-10T15:14:57.768Z,2.70
2023-03-10T15:18:00.094Z,4.10
2023-03-10T15:21:03.550Z,4.00
2023-03-10T15:24:07.638Z,3.72
2023-03-10T15:27:12.381Z,4.50
2023-03-10T15:30:24.007Z,4.40
2023-03-10T15:33:26.600Z,6.13
2023-03-10T15:36:28.915Z,10.20
2023-03-10T15:39:33.111Z,4.95
2023-03-10T15:42:36.722Z,4.82
2023-03-10T15:45:44.281Z,4.80
2023-03-10T15:48:46.957Z,4.68
2023-03-10T15:51:49.274Z,5.87
2023-03-10T15:54:51.578Z,3.33
2023-03-10T15:57:54.037Z,4.05
2023-03-10T16:00:56.262Z,4.82
2023-03-10T16:04:01.781Z,5.75
2023-03-10T16:07:05.000Z,3.80
2023-03-10T16:10:09.924Z,4.35
2023-03-10T16:13:12.279Z,5.88
2023-03-10T16:16:18.238Z,2.72
2023-03-10T16:19:21.272Z,6.63
2023-03-10T16:22:23.591Z,6.10
2023-03-10T16:25:26.296Z,4.43
2023-03-10T16:28:28.570Z,3.85
2023-03-10T16:31:30.922Z,3.80
2023-03-10T16:34:33.245Z,3.80
2023-03-10T16:37:35.566Z,6.03
2023-03-10T16:40:37.911Z,3.90
2023-03-10T16:43:40.313Z,5.00
2023-03-10T16:46:42.656Z,3.38
2023-03-10T16:49:45.030Z,3.70
2023-03-10T16:52:47.481Z,4.33
2023-03-10T16:55:49.878Z,7.53
2023-03-10T16:58:53.355Z,6.72
2023-03-10T17:01:55.652Z,3.97
2023-03-10T17:04:57.902Z,4.70
2023-03-10T17:08:02.642Z,6.83
2023-03-10T17:11:05.785Z,5.70
2023-03-10T17:14:10.210Z,4.45
2023-03-10T17:17:12.726Z,6.70
2023-03-10T17:20:15.455Z,7.28
2023-03-10T17:23:17.814Z,4.20
2023-03-10T17:26:20.594Z,5.53
2023-03-10T17:29:22.915Z,6.28
2023-03-10T17:32:25.316Z,11.60
2023-03-10T17:35:27.659Z,8.10
2023-03-10T17:38:30.017Z,5.60
2023-03-10T17:41:34.062Z,7.55
2023-03-10T17:44:36.409Z,8.70
2023-03-10T17:47:38.673Z,8.20
2023-03-10T17:50:40.949Z,8.32
2023-03-10T17:53:44.433Z,10.10
2023-03-10T17:56:47.426Z,6.75
2023-03-10T17:59:51.110Z,6.93
2023-03-10T18:02:53.542Z,7.68
2023-03-10T18:05:55.928Z,8.57
2023-03-10T18:08:59.302Z,8.33
2023-03-10T18:12:01.586Z,9.45
2023-03-10T18:15:04.212Z,16.52
2023-03-10T18:18:06.501Z,9.15
2023-03-10T18:21:09.878Z,7.43
2023-03-10T18:24:12.626Z,8.20
2023-03-10T18:27:14.919Z,6.78
2023-03-10T18:30:17.385Z,7.60
2023-03-10T18:33:19.693Z,7.00
2023-03-10T18:36:24.161Z,6.20
2023-03-10T18:39:26.853Z,8.27
2023-03-10T18:42:31.768Z,9.05
2023-03-10T18:45:34.196Z,12.10
2023-03-10T18:48:36.622Z,9.05
2023-03-10T18:51:39.103Z,9.80
2023-03-10T18:54:42.889Z,8.00
2023-03-10T18:57:45.166Z,10.15
2023-03-10T19:00:47.992Z,9.05
2023-03-10T19:03:50.410Z,10.45
2023-03-10T19:06:52.692Z,11.10
2023-03-10T19:09:55.148Z,12.47
2023-03-10T19:12:58.144Z,13.55
2023-03-10T19:16:05.516Z,9.55
2023-03-10T19:19:07.928Z,11.57
2023-03-10T19:22:10.454Z,10.25
2023-03-10T19:25:12.906Z,11.77
2023-03-10T19:28:15.183Z,11.43
2023-03-10T19:31:17.452Z,12.98
2023-03-10T19:34:20.635Z,11.55
2023-03-10T19:37:23.594Z,12.73
2023-03-10T19:40:25.976Z,13.63
2023-03-10T19:43:28.842Z,13.50
2023-03-10T19:46:31.295Z,17.90
2023-03-10T19:49:34.322Z,14.75
2023-03-10T19:52:39.041Z,15.30
2023-03-10T19:55:43.581Z,14.07
2023-03-10T19:58:46.945Z,15.88
2023-03-10T20:01:49.426Z,16.77
2023-03-10T20:04:51.827Z,14.30
2023-03-10T20:07:54.508Z,12.68
2023-03-10T20:11:02.104Z,15.90
2023-03-10T20:14:05.272Z,12.23
2023-03-10T20:17:09.284Z,12.25
2023-03-10T20:20:13.339Z,12.48
2023-03-10T20:23:16.327Z,12.50
2023-03-10T20:26:19.288Z,11.53
2023-03-10T20:29:21.718Z,11.50
2023-03-10T20:32:24.359Z,13.32
2023-03-10T20:35:29.480Z,9.38
2023-03-10T20:38:31.784Z,10.27
2023-03-10T20:41:34.451Z,9.87
2023-03-10T20:44:37.933Z,12.88
2023-03-10T20:47:40.982Z,11.10
2023-03-10T20:50:43.300Z,12.18
2023-03-10T20:53:45.639Z,10.02
2023-03-10T20:56:48.317Z,9.60
2023-03-10T20:59:50.650Z,8.10
2023-03-10T21:02:56.899Z,10.73
2023-03-10T21:05:59.273Z,12.05
2023-03-10T21:09:05.829Z,15.30
2023-03-10T21:12:09.029Z,11.60
2023-03-10T21:15:14.436Z,11.88
2023-03-10T21:18:17.234Z,11.95
2023-03-10T21:21:19.610Z,11.63
2023-03-10T21:24:22.210Z,15.88
2023-03-10T21:27:27.328Z,14.37
2023-03-10T21:30:32.073Z,11.35
2023-03-10T21:33:34.995Z,12.05
2023-03-10T21:36:37.435Z,11.18
2023-03-10T21:39:40.652Z,12.25
2023-03-10T21:42:42.961Z,12.13
2023-03-10T21:45:46.125Z,13.10
2023-03-10T21:48:48.791Z,12.02
2023-03-10T21:51:51.265Z,13.82
2023-03-10T21:54:53.606Z,12.73
2023-03-10T21:57:56.147Z,14.47
2023-03-10T22:00:58.474Z,12.93
2023-03-10T22:04:01.009Z,14.75
2023-03-10T22:07:04.168Z,14.40
2023-03-10T22:10:08.050Z,12.48
2023-03-10T22:13:10.389Z,11.77
2023-03-10T22:16:16.189Z,9.77
2023-03-10T22:19:19.006Z,11.05
2023-03-10T22:22:22.203Z,10.75
2023-03-10T22:25:24.886Z,11.15
2023-03-10T22:28:27.255Z,10.33
2023-03-10T22:31:29.621Z,8.15
2023-03-10T22:34:33.076Z,6.43
2023-03-10T22:37:36.410Z,6.70
2023-03-10T22:40:39.812Z,6.82
2023-03-10T22:43:42.377Z,5.50
2023-03-10T22:46:46.304Z,4.57
2023-03-10T22:49:48.656Z,5.75
2023-03-10T22:52:50.987Z,5.07
2023-03-10T22:55:53.333Z,2.33
2023-03-10T22:58:55.838Z,3.10
2023-03-10T23:01:58.189Z,2.70
2023-03-10T23:05:00.483Z,2.03
2023-03-10T23:08:02.921Z,2.13
2023-03-10T23:11:10.653Z,2.20
2023-03-10T23:14:12.912Z,1.23
2023-03-10T23:17:15.348Z,1.65
2023-03-10T23:20:18.762Z,1.15
2023-03-10T23:23:21.204Z,1.58
2023-03-10T23:26:23.709Z,0.68
2023-03-10T23:29:26.040Z,1.40
2023-03-10T23:32:28.368Z,1.10
2023-03-10T23:35:32.508Z,1.10
2023-03-10T23:38:37.615Z,0.75
2023-03-10T23:41:40.329Z,0.25
2023-03-10T23:44:42.801Z,2.00
2023-03-10T23:47:45.449Z,0.22
2023-03-10T23:50:48.281Z,0.75
2023-03-10T23:53:50.715Z,0.40
2023-03-10T23:56:53.031Z,0.10
2023-03-10T23:59:55.360Z,0.30
